createdAt,value
2023-02-04T00:00:42.332Z,99606.04
2023-02-04T00:03:28.053Z,99614.80
2023-02-04T00:05:56.154Z,99615.73
2023-02-04T00:08:24.224Z,99617.06
2023-02-04T00:10:52.158Z,99629.34
2023-02-04T00:13:20.216Z,99634.14
2023-02-04T00:15:48.243Z,99644.30
2023-02-04T00:18:16.432Z,99654.12
2023-02-04T00:20:44.446Z,99663.57
2023-02-04T00:23:12.557Z,99670.71
2023-02-04T00:25:41.583Z,99675.70
2023-02-04T00:28:09.782Z,99685.44
2023-02-04T00:30:37.774Z,99691.67
2023-02-04T00:33:05.875Z,99698.39
2023-02-04T00:35:33.827Z,99704.80
2023-02-04T00:38:01.903Z,99706.73
2023-02-04T00:40:30.270Z,99716.38
2023-02-04T00:42:58.584Z,99722.88
2023-02-04T00:45:29.046Z,99739.14
2023-02-04T00:47:57.534Z,99749.40
2023-02-04T00:50:25.648Z,99755.23
2023-02-04T00:52:53.611Z,99756.73
2023-02-04T00:55:21.604Z,99765.52
2023-02-04T00:57:51.494Z,99779.73
2023-02-04T01:00:19.951Z,99780.85
2023-02-04T01:02:47.885Z,99786.98
2023-02-04T01:05:16.434Z,99793.98
2023-02-04T01:07:46.506Z,99798.78
2023-02-04T01:10:16.195Z,99807.04
2023-02-04T01:12:44.804Z,99816.40
2023-02-04T01:15:13.134Z,99819.50
2023-02-04T01:17:41.955Z,99833.42
2023-02-04T01:20:10.921Z,99844.07
2023-02-04T01:22:38.874Z,99849.68
2023-02-04T01:25:07.488Z,99858.72
2023-02-04T01:27:44.711Z,99870.32
2023-02-04T01:30:15.273Z,99876.77
2023-02-04T01:32:43.232Z,99892.41
2023-02-04T01:35:11.323Z,99894.29
2023-02-04T01:37:40.995Z,99906.39
2023-02-04T01:40:10.367Z,99916.80
2023-02-04T01:42:38.576Z,99931.52
2023-02-04T01:45:08.379Z,99939.98
2023-02-04T01:47:37.082Z,99955.91
2023-02-04T01:50:10.676Z,99964.70
2023-02-04T01:52:40.000Z,99975.13
2023-02-04T01:55:18.516Z,99979.55
2023-02-04T01:57:47.381Z,99991.02
2023-02-04T02:00:18.224Z,99999.39
2023-02-04T02:02:51.636Z,100009.38
2023-02-04T02:05:40.524Z,100014.96
2023-02-04T02:08:09.071Z,100022.13
2023-02-04T02:10:41.407Z,100030.86
2023-02-04T02:13:13.977Z,100034.84
2023-02-04T02:15:42.278Z,100038.93
2023-02-04T02:18:11.847Z,100052.71
2023-02-04T02:20:42.943Z,100066.66
2023-02-04T02:23:49.706Z,100081.38
2023-02-04T02:26:19.916Z,100096.36
2023-02-04T02:28:49.538Z,100103.20
2023-02-04T02:31:23.067Z,100112.16
2023-02-04T02:33:51.268Z,100123.09
2023-02-04T02:36:20.008Z,100132.88
2023-02-04T02:38:47.909Z,100138.58
2023-02-04T02:41:16.051Z,100146.95
2023-02-04T02:43:44.759Z,100163.48
2023-02-04T02:46:12.829Z,100173.52
2023-02-04T02:48:40.862Z,100185.80
2023-02-04T02:51:09.446Z,100196.47
2023-02-04T02:53:37.962Z,100201.67
2023-02-04T02:56:06.694Z,100208.98
2023-02-04T02:58:36.527Z,100218.72
2023-02-04T03:01:07.385Z,100228.10
2023-02-04T03:03:40.422Z,100244.33
2023-02-04T03:06:15.887Z,100249.38
2023-02-04T03:08:44.933Z,100251.88
2023-02-04T03:11:13.018Z,100261.67
2023-02-04T03:13:43.050Z,100273.61
2023-02-04T03:16:11.344Z,100290.98
2023-02-04T03:18:39.537Z,100298.20
2023-02-04T03:21:08.225Z,100305.25
2023-02-04T03:23:38.513Z,100315.07
2023-02-04T03:26:07.381Z,100323.09
2023-02-04T03:28:40.037Z,100332.89
2023-02-04T03:31:09.307Z,100344.80
2023-02-04T03:33:37.539Z,100350.52
2023-02-04T03:36:06.103Z,100355.37
2023-02-04T03:38:34.453Z,100368.11
2023-02-04T03:41:02.525Z,100379.22
2023-02-04T03:43:32.384Z,100387.57
2023-02-04T03:46:01.774Z,100399.66
2023-02-04T03:48:30.089Z,100411.05
2023-02-04T03:50:57.996Z,100421.06
2023-02-04T03:53:26.379Z,100429.60
2023-02-04T03:55:54.791Z,100436.24
2023-02-04T03:58:22.942Z,100444.42
2023-02-04T04:05:18.054Z,100464.43
2023-02-04T04:07:46.256Z,100469.80
2023-02-04T04:10:15.527Z,100477.21
2023-02-04T04:12:43.518Z,100491.34
2023-02-04T04:15:11.630Z,100491.95
2023-02-04T04:17:39.983Z,100501.27
2023-02-04T04:20:08.484Z,100507.75
2023-02-04T04:22:37.680Z,100520.19
2023-02-04T04:25:07.220Z,100530.48
2023-02-04T04:27:35.252Z,100538.52
2023-02-04T04:34:38.320Z,100562.35
2023-02-04T04:37:06.389Z,100573.68
2023-02-04T04:39:34.605Z,100582.37
2023-02-04T04:42:02.774Z,100594.84
2023-02-04T04:44:30.729Z,100610.65
2023-02-04T04:46:58.730Z,100620.61
2023-02-04T04:49:26.952Z,100625.98
2023-02-04T04:51:55.122Z,100633.43
2023-02-04T04:54:23.222Z,100639.42
2023-02-04T04:56:51.447Z,100647.92
2023-02-04T04:59:19.731Z,100649.60
2023-02-04T05:01:47.751Z,100656.35
2023-02-04T05:04:15.738Z,100666.59
2023-02-04T05:06:43.703Z,100682.85
2023-02-04T05:09:11.979Z,100689.48
2023-02-04T05:11:40.378Z,100696.27
2023-02-04T05:14:08.292Z,100698.21
2023-02-04T05:16:36.418Z,100708.30
2023-02-04T05:19:04.530Z,100717.41
2023-02-04T05:21:32.751Z,100729.52
2023-02-04T05:24:00.836Z,100734.48
2023-02-04T05:26:31.046Z,100740.41
2023-02-04T05:29:02.539Z,100747.97
2023-02-04T05:31:31.219Z,100751.49
2023-02-04T05:33:59.377Z,100751.56
2023-02-04T05:36:27.548Z,100764.20
2023-02-04T05:38:55.518Z,100768.41
2023-02-04T05:41:23.499Z,100783.25
2023-02-04T05:43:51.490Z,100783.45
2023-02-04T05:46:19.489Z,100794.92
2023-02-04T05:48:47.632Z,100798.23
2023-02-04T05:51:16.074Z,100807.27
2023-02-04T05:53:44.274Z,100818.69
2023-02-04T05:56:12.229Z,100821.44
2023-02-04T05:58:40.256Z,100839.73
2023-02-04T06:01:08.456Z,100851.58
2023-02-04T06:03:36.596Z,100861.41
2023-02-04T06:06:04.795Z,100866.23
2023-02-04T06:08:32.764Z,100880.92
2023-02-04T06:11:00.748Z,100887.02
2023-02-04T06:13:28.655Z,100896.91
2023-02-04T06:15:56.621Z,100906.52
2023-02-04T06:18:24.644Z,100909.08
2023-02-04T06:20:52.631Z,100918.56
2023-02-04T06:23:20.731Z,100921.39
2023-02-04T06:25:50.407Z,100931.16
2023-02-04T06:28:18.545Z,100936.95
2023-02-04T06:30:46.896Z,100947.20
2023-02-04T06:33:16.304Z,100956.65
2023-02-04T06:35:44.660Z,100966.23
2023-02-04T06:38:12.902Z,100964.67
2023-02-04T06:40:40.896Z,100971.70
2023-02-04T06:43:09.200Z,100979.43
2023-02-04T06:45:37.229Z,100990.84
2023-02-04T06:48:05.694Z,100992.73
2023-02-04T06:50:33.961Z,101002.45
2023-02-04T06:53:02.664Z,101012.30
2023-02-04T06:55:30.953Z,101019.85
2023-02-04T06:57:59.005Z,101023.43
2023-02-04T07:00:26.976Z,101028.83
2023-02-04T07:02:56.803Z,101039.39
2023-02-04T07:05:26.108Z,101048.72
2023-02-04T07:07:54.460Z,101054.70
2023-02-04T07:10:22.778Z,101058.38
2023-02-04T07:12:50.761Z,101073.65
2023-02-04T07:15:19.102Z,101078.96
2023-02-04T07:17:47.059Z,101082.39
2023-02-04T07:20:15.244Z,101080.55
2023-02-04T07:22:43.229Z,101089.38
2023-02-04T07:25:15.214Z,101094.88
2023-02-04T07:27:44.173Z,101101.84
2023-02-04T07:30:13.277Z,101111.28
2023-02-04T07:32:41.434Z,101113.21
2023-02-04T07:35:10.470Z,101121.40
2023-02-04T07:37:38.624Z,101132.52
2023-02-04T07:40:07.359Z,101132.05
2023-02-04T07:42:35.594Z,101146.25
2023-02-04T07:45:07.870Z,101139.03
2023-02-04T07:47:35.995Z,101149.39
2023-02-04T07:50:04.557Z,101148.47
2023-02-04T07:52:32.586Z,101156.11
2023-02-04T07:55:00.748Z,101157.04
2023-02-04T07:57:30.189Z,101154.36
2023-02-04T07:59:59.342Z,101164.69
2023-02-04T08:02:27.592Z,101169.23
2023-02-04T08:04:55.902Z,101172.07
2023-02-04T08:07:23.951Z,101173.16
2023-02-04T08:09:52.540Z,101180.89
2023-02-04T08:12:20.502Z,101183.49
2023-02-04T08:14:48.678Z,101189.69
2023-02-04T08:17:17.262Z,101195.05
2023-02-04T08:19:45.592Z,101202.69
2023-02-04T08:22:13.746Z,101204.27
2023-02-04T08:24:42.036Z,101200.41
2023-02-04T08:27:10.218Z,101202.98
2023-02-04T08:29:38.483Z,101205.69
2023-02-04T08:32:10.392Z,101209.42
2023-02-04T08:34:38.472Z,101210.80
2023-02-04T08:37:06.572Z,101219.01
2023-02-04T08:39:34.695Z,101227.73
2023-02-04T08:42:02.912Z,101234.13
2023-02-04T08:44:31.266Z,101231.46
2023-02-04T08:46:59.600Z,101245.61
2023-02-04T08:49:27.956Z,101259.14
2023-02-04T08:51:56.322Z,101263.47
2023-02-04T08:54:26.365Z,101269.59
2023-02-04T08:56:54.717Z,101269.53
2023-02-04T08:59:24.333Z,101273.15
2023-02-04T09:01:53.328Z,101273.77
2023-02-04T09:04:23.986Z,101273.97
2023-02-04T09:06:52.540Z,101280.33
2023-02-04T09:09:23.011Z,101289.97
2023-02-04T09:11:51.895Z,101290.98
2023-02-04T09:14:19.925Z,101300.23
2023-02-04T09:16:49.194Z,101296.01
2023-02-04T09:19:19.474Z,101298.59
2023-02-04T09:21:47.577Z,101307.96
2023-02-04T09:24:15.736Z,101309.34
2023-02-04T09:26:43.834Z,101307.86
2023-02-04T09:29:11.819Z,101301.86
2023-02-04T09:31:40.414Z,101302.20
2023-02-04T09:34:08.613Z,101303.27
2023-02-04T09:36:38.667Z,101298.23
2023-02-04T09:39:09.982Z,101309.61
2023-02-04T09:41:41.885Z,101312.68
2023-02-04T09:44:20.062Z,101321.38
2023-02-04T09:46:51.631Z,101324.30
2023-02-04T09:49:20.268Z,101330.84
2023-02-04T09:51:49.980Z,101331.52
2023-02-04T09:54:20.653Z,101327.34
2023-02-04T09:56:50.522Z,101329.60
2023-02-04T09:59:21.574Z,101322.63
2023-02-04T10:05:22.350Z,101329.41
2023-02-04T10:07:52.134Z,101332.04
2023-02-04T10:10:25.201Z,101342.77
2023-02-04T10:13:00.291Z,101349.98
2023-02-04T10:15:28.703Z,101359.10
2023-02-04T10:18:03.726Z,101357.98
2023-02-04T10:20:32.231Z,101360.55
2023-02-04T10:23:00.512Z,101365.15
2023-02-04T10:25:28.704Z,101369.63
2023-02-04T10:28:00.953Z,101365.42
2023-02-04T10:30:36.008Z,101368.79
2023-02-04T10:33:16.310Z,101371.60
2023-02-04T10:35:47.456Z,101369.13
2023-02-04T10:38:15.727Z,101368.23
2023-02-04T10:40:44.478Z,101376.32
2023-02-04T10:43:22.801Z,101376.66
2023-02-04T10:46:02.476Z,101378.53
2023-02-04T10:48:39.049Z,101386.30
2023-02-04T10:51:13.061Z,101385.09
2023-02-04T10:54:00.644Z,101385.23
2023-02-04T10:56:28.829Z,101389.19
2023-02-04T10:58:57.030Z,101385.30
2023-02-04T11:04:34.007Z,101391.06
2023-02-04T11:07:02.046Z,101390.07
2023-02-04T11:09:29.966Z,101387.67
2023-02-04T11:11:58.424Z,101388.11
2023-02-04T11:14:30.521Z,101390.41
2023-02-04T11:17:00.955Z,101388.12
2023-02-04T11:19:35.858Z,101392.59
2023-02-04T11:22:20.894Z,101388.96
2023-02-04T11:24:49.281Z,101387.52
2023-02-04T11:27:24.028Z,101387.39
2023-02-04T11:29:53.173Z,101387.55
2023-02-04T11:32:36.223Z,101387.31
2023-02-04T11:35:13.490Z,101388.95
2023-02-04T11:37:43.692Z,101394.39
2023-02-04T11:40:34.956Z,101396.81
2023-02-04T11:43:11.557Z,101399.61
2023-02-04T11:45:41.823Z,101393.48
2023-02-04T11:48:16.291Z,101396.73
2023-02-04T11:50:59.210Z,101403.02
2023-02-04T11:53:35.121Z,101399.23
2023-02-04T11:56:03.565Z,101403.55
2023-02-04T11:58:33.800Z,101407.98
2023-02-04T12:01:01.942Z,101403.52
2023-02-04T12:03:36.233Z,101405.73
2023-02-04T12:06:04.421Z,101405.43
2023-02-04T12:08:35.345Z,101408.42
2023-02-04T12:11:30.395Z,101405.48
2023-02-04T12:14:07.216Z,101416.29
2023-02-04T12:16:53.441Z,101412.80
2023-02-04T12:19:21.336Z,101413.19
2023-02-04T12:21:49.634Z,101415.32
2023-02-04T12:24:17.597Z,101409.16
2023-02-04T12:26:45.564Z,101416.75
2023-02-04T12:29:13.646Z,101413.94
2023-02-04T12:31:42.302Z,101419.67
2023-02-04T12:34:10.391Z,101421.42
2023-02-04T12:36:38.421Z,101426.01
2023-02-04T12:39:06.472Z,101421.20
2023-02-04T12:41:34.695Z,101426.61
2023-02-04T12:44:03.117Z,101431.98
2023-02-04T12:46:31.147Z,101430.02
2023-02-04T12:48:59.183Z,101432.61
2023-02-04T12:51:27.209Z,101438.17
2023-02-04T12:53:55.518Z,101442.55
2023-02-04T12:56:24.340Z,101444.21
2023-02-04T12:58:52.398Z,101446.88
2023-02-04T13:01:20.284Z,101441.23
2023-02-04T13:03:48.316Z,101438.97
2023-02-04T13:06:16.205Z,101441.69
2023-02-04T13:08:44.190Z,101446.98
2023-02-04T13:11:12.353Z,101451.63
2023-02-04T13:13:40.765Z,101450.17
2023-02-04T13:16:08.863Z,101454.66
2023-02-04T13:18:36.882Z,101459.16
2023-02-04T13:21:05.121Z,101461.98
2023-02-04T13:23:33.049Z,101465.55
2023-02-04T13:26:01.025Z,101470.70
2023-02-04T13:28:28.948Z,101472.83
2023-02-04T13:30:56.837Z,101471.82
2023-02-04T13:33:26.025Z,101471.47
2023-02-04T13:35:54.204Z,101465.27
2023-02-04T13:38:22.187Z,101474.48
2023-02-04T13:40:50.173Z,101480.21
2023-02-04T13:43:19.668Z,101479.51
2023-02-04T13:45:49.071Z,101488.54
2023-02-04T13:48:17.459Z,101492.79
2023-02-04T13:50:45.418Z,101491.64
2023-02-04T13:53:13.545Z,101495.41
2023-02-04T13:55:43.225Z,101499.36
2023-02-04T13:58:11.234Z,101499.30
2023-02-04T14:00:39.325Z,101500.75
2023-02-04T14:06:11.566Z,101511.27
2023-02-04T14:08:39.821Z,101512.14
2023-02-04T14:11:07.915Z,101512.04
2023-02-04T14:13:35.797Z,101513.77
2023-02-04T14:16:05.713Z,101513.27
2023-02-04T14:18:33.728Z,101518.33
2023-02-04T14:21:01.779Z,101523.20
2023-02-04T14:23:29.913Z,101520.95
2023-02-04T14:25:57.981Z,101516.73
2023-02-04T14:28:26.113Z,101521.81
2023-02-04T14:30:54.958Z,101524.60
2023-02-04T14:33:23.579Z,101524.10
2023-02-04T14:35:52.130Z,101526.91
2023-02-04T14:38:20.455Z,101534.72
2023-02-04T14:40:48.814Z,101536.35
2023-02-04T14:43:16.901Z,101541.34
2023-02-04T14:45:44.908Z,101540.64
2023-02-04T14:48:12.934Z,101552.60
2023-02-04T14:50:41.021Z,101549.99
2023-02-04T14:53:09.132Z,101546.23
2023-02-04T14:55:37.076Z,101560.77
2023-02-04T14:58:05.480Z,101560.92
2023-02-04T15:00:33.896Z,101563.41
2023-02-04T15:03:02.102Z,101568.20
2023-02-04T15:05:30.198Z,101569.02
2023-02-04T15:07:58.153Z,101577.29
2023-02-04T15:10:26.161Z,101575.61
2023-02-04T15:12:55.489Z,101580.48
2023-02-04T15:15:24.644Z,101584.09
2023-02-04T15:17:52.717Z,101588.89
2023-02-04T15:20:20.713Z,101586.21
2023-02-04T15:22:52.036Z,101592.31
2023-02-04T15:25:20.259Z,101593.66
2023-02-04T15:27:48.647Z,101595.63
2023-02-04T15:30:16.981Z,101599.95
2023-02-04T15:32:46.098Z,101602.91
2023-02-04T15:35:14.548Z,101603.65
2023-02-04T15:37:42.676Z,101609.52
2023-02-04T15:40:11.484Z,101611.65
2023-02-04T15:42:39.704Z,101613.61
2023-02-04T15:45:08.415Z,101618.34
2023-02-04T15:47:36.474Z,101623.04
2023-02-04T15:50:06.587Z,101630.73
2023-02-04T15:52:34.545Z,101634.19
2023-02-04T15:55:02.506Z,101634.52
2023-02-04T15:57:30.395Z,101641.06
2023-02-04T15:59:58.449Z,101643.89
2023-02-04T16:02:46.494Z,101650.83
2023-02-04T16:05:14.925Z,101649.75
2023-02-04T16:07:43.273Z,101658.08
2023-02-04T16:10:11.408Z,101663.94
2023-02-04T16:12:39.432Z,101661.95
2023-02-04T16:15:07.989Z,101661.52
2023-02-04T16:17:35.986Z,101666.67
2023-02-04T16:20:04.428Z,101666.17
2023-02-04T16:22:32.546Z,101670.65
2023-02-04T16:25:00.574Z,101675.02
2023-02-04T16:27:28.845Z,101680.55
2023-02-04T16:29:57.030Z,101682.36
2023-02-04T16:32:25.144Z,101684.75
2023-02-04T16:34:53.989Z,101688.80
2023-02-04T16:37:22.284Z,101691.27
2023-02-04T16:39:52.151Z,101699.48
2023-02-04T16:42:20.107Z,101704.30
2023-02-04T16:44:48.054Z,101702.05
2023-02-04T16:47:16.629Z,101705.50
2023-02-04T16:49:45.007Z,101702.73
2023-02-04T16:52:13.109Z,101710.89
2023-02-04T16:54:41.188Z,101709.11
2023-02-04T16:57:09.448Z,101716.51
2023-02-04T16:59:38.437Z,101721.94
2023-02-04T17:02:07.008Z,101729.55
2023-02-04T17:04:35.077Z,101730.91
2023-02-04T17:07:03.502Z,101728.55
2023-02-04T17:09:31.526Z,101730.00
2023-02-04T17:11:59.449Z,101731.77
2023-02-04T17:14:27.629Z,101737.83
2023-02-04T17:16:55.533Z,101734.36
2023-02-04T17:19:24.698Z,101733.71
2023-02-04T17:21:54.064Z,101735.16
2023-02-04T17:24:22.072Z,101737.63
2023-02-04T17:26:50.075Z,101743.30
2023-02-04T17:29:18.207Z,101744.33
2023-02-04T17:31:46.239Z,101747.38
2023-02-04T17:34:14.204Z,101754.05
2023-02-04T17:36:42.208Z,101757.52
2023-02-04T17:39:10.543Z,101755.75
2023-02-04T17:41:38.522Z,101761.77
2023-02-04T17:44:06.427Z,101764.55
2023-02-04T17:46:37.192Z,101765.75
2023-02-04T17:49:05.258Z,101765.80
2023-02-04T17:51:33.236Z,101775.78
2023-02-04T17:54:01.258Z,101777.14
2023-02-04T17:56:29.469Z,101784.55
2023-02-04T17:58:57.529Z,101786.07
2023-02-04T18:01:26.324Z,101791.11
2023-02-04T18:03:54.791Z,101799.44
2023-02-04T18:06:27.295Z,101795.39
2023-02-04T18:09:01.614Z,101798.77
2023-02-04T18:11:36.421Z,101803.44
2023-02-04T18:14:15.679Z,101804.61
2023-02-04T18:16:44.698Z,101800.71
2023-02-04T18:19:19.093Z,101812.10
2023-02-04T18:21:49.471Z,101815.98
2023-02-04T18:24:21.846Z,101823.84
2023-02-04T18:26:52.792Z,101825.66
2023-02-04T18:29:30.363Z,101822.91
2023-02-04T18:32:20.287Z,101822.47
2023-02-04T18:34:51.725Z,101830.40
2023-02-04T18:37:34.249Z,101830.35
2023-02-04T18:40:14.320Z,101831.92
2023-02-04T18:42:44.789Z,101833.52
2023-02-04T18:45:31.369Z,101832.03
2023-02-04T18:48:16.310Z,101833.14
2023-02-04T18:50:46.386Z,101833.03
2023-02-04T18:53:14.975Z,101834.76
2023-02-04T18:55:47.524Z,101839.23
2023-02-04T18:58:34.428Z,101844.04
2023-02-04T19:04:34.581Z,101846.20
2023-02-04T19:07:11.304Z,101851.44
2023-02-04T19:09:39.529Z,101854.02
2023-02-04T19:12:22.450Z,101846.96
2023-02-04T19:14:50.534Z,101847.73
2023-02-04T19:17:30.170Z,101844.83
2023-02-04T19:20:23.062Z,101851.38
2023-02-04T19:22:54.980Z,101858.06
2023-02-04T19:25:35.860Z,101857.52
2023-02-04T19:28:18.511Z,101863.52
2023-02-04T19:30:50.968Z,101870.76
2023-02-04T19:33:42.460Z,101876.43
2023-02-04T19:36:30.534Z,101874.88
2023-02-04T19:39:03.718Z,101877.93
2023-02-04T19:41:48.174Z,101882.30
2023-02-04T19:44:22.590Z,101884.12
2023-02-04T19:46:50.509Z,101881.71
2023-02-04T19:49:21.697Z,101884.80
2023-02-04T19:51:55.006Z,101887.06
2023-02-04T19:54:38.666Z,101885.88
2023-02-04T19:57:24.294Z,101889.99
2023-02-04T19:59:56.697Z,101891.84
2023-02-04T20:02:36.229Z,101891.91
2023-02-04T20:05:18.756Z,101893.46
2023-02-04T20:07:47.095Z,101894.92
2023-02-04T20:10:25.883Z,101897.04
2023-02-04T20:13:11.082Z,101900.60
2023-02-04T20:15:39.166Z,101902.65
2023-02-04T20:18:17.188Z,101905.75
2023-02-04T20:20:47.116Z,101910.02
2023-02-04T20:23:33.109Z,101918.73
2023-02-04T20:26:01.600Z,101924.63
2023-02-04T20:28:41.076Z,101929.10
2023-02-04T20:31:24.445Z,101929.63
2023-02-04T20:33:56.065Z,101929.77
2023-02-04T20:36:34.562Z,101925.98
2023-02-04T20:39:33.402Z,101927.53
2023-02-04T20:42:33.989Z,101932.87
2023-02-04T20:45:30.559Z,101939.64
2023-02-04T20:48:16.975Z,101941.79
2023-02-04T20:50:52.199Z,101942.86
2023-02-04T20:53:23.575Z,101941.95
2023-02-04T20:56:07.017Z,101941.56
2023-02-04T20:58:41.224Z,101944.45
2023-02-04T21:01:41.203Z,101950.42
2023-02-04T21:04:24.424Z,101955.52
2023-02-04T21:07:00.901Z,101956.40
2023-02-04T21:09:32.231Z,101965.36
2023-02-04T21:12:02.455Z,101974.39
2023-02-04T21:14:30.787Z,101977.06
2023-02-04T21:16:59.001Z,101974.95
2023-02-04T21:19:30.747Z,101973.73
2023-02-04T21:21:59.197Z,101977.67
2023-02-04T21:24:30.579Z,101977.83
2023-02-04T21:26:59.072Z,101975.99
2023-02-04T21:29:27.199Z,101981.66
2023-02-04T21:31:56.306Z,101987.52
2023-02-04T21:34:24.283Z,101988.91
2023-02-04T21:36:52.314Z,101988.42
2023-02-04T21:39:20.862Z,101994.56
2023-02-04T21:42:08.961Z,101989.90
2023-02-04T21:44:38.161Z,101989.13
2023-02-04T21:47:06.553Z,101992.88
2023-02-04T21:49:38.153Z,101999.25
2023-02-04T21:52:07.805Z,102007.61
2023-02-04T21:54:36.432Z,102005.86
2023-02-04T21:57:04.570Z,102010.48
2023-02-04T21:59:32.948Z,102017.31
2023-02-04T22:02:01.093Z,102025.58
2023-02-04T22:04:29.839Z,102031.97
2023-02-04T22:06:58.178Z,102035.13
2023-02-04T22:09:26.191Z,102038.94
2023-02-04T22:11:54.125Z,102034.95
2023-02-04T22:14:40.831Z,102032.80
2023-02-04T22:17:09.109Z,102032.48
2023-02-04T22:19:43.144Z,102033.93
2023-02-04T22:22:11.224Z,102037.77
2023-02-04T22:24:39.259Z,102041.88
2023-02-04T22:27:08.264Z,102048.29
2023-02-04T22:29:36.278Z,102048.11
2023-02-04T22:32:04.431Z,102050.26
2023-02-04T22:34:32.484Z,102057.98
2023-02-04T22:37:00.545Z,102063.88
2023-02-04T22:39:29.063Z,102062.00
2023-02-04T22:41:57.072Z,102065.33
2023-02-04T22:44:25.173Z,102069.34
2023-02-04T22:46:53.987Z,102073.77
2023-02-04T22:49:22.081Z,102073.17
2023-02-04T22:51:50.056Z,102081.56
2023-02-04T22:54:18.176Z,102086.60
2023-02-04T22:56:46.220Z,102093.39
2023-02-04T22:59:16.069Z,102097.73
2023-02-04T23:01:44.760Z,102100.61
2023-02-04T23:04:12.687Z,102104.67
2023-02-04T23:06:40.711Z,102111.88
2023-02-04T23:09:09.367Z,102112.84
2023-02-04T23:11:37.647Z,102115.55
2023-02-04T23:14:05.653Z,102120.06
2023-02-04T23:16:33.933Z,102117.55
2023-02-04T23:19:02.243Z,102123.65
2023-02-04T23:21:30.330Z,102129.02
2023-02-04T23:23:59.192Z,102128.64
2023-02-04T23:26:27.812Z,102124.45
2023-02-04T23:28:55.944Z,102124.86
2023-02-04T23:31:24.427Z,102128.59
2023-02-04T23:33:52.535Z,102128.02
2023-02-04T23:36:20.564Z,102130.81
2023-02-04T23:38:52.165Z,102137.04
2023-02-04T23:41:23.460Z,102141.99
2023-02-04T23:43:51.468Z,102144.19
2023-02-04T23:46:19.620Z,102142.25
2023-02-04T23:48:47.943Z,102138.02
2023-02-04T23:51:16.478Z,102135.79
2023-02-04T23:53:44.804Z,102133.63
2023-02-04T23:56:12.790Z,102139.30
2023-02-04T23:58:40.947Z,102139.35
